Latest Weather Observations for Jervis Bay Airfield

IDN60801

Issued at 2:02 pm EDT Monday 18 November 2019 (issued every 10 minutes, with the page automatically refreshed every 10 minutes)

About weather observations | Map of weather stations | Latest weather observations for NSW | Other Formats
Station Details ID: 068264 Name: JERVIS BAY AIRFIELD AWS Lat: -35.14 Lon: 150.70 Height: 57.18 m
Data from the previous 72 hours. | See also: Recent months at Jervis Bay Airfield
Date/Time
EDT
Temp
°C
App
Temp
°C
Dew
Point
°C
Rel
Hum
%
Delta-T
°C
Wind Press
QNH
hPa
Press
MSL
hPa
Rain since
9am
mm
Dir  Spd
km/h
Gust
km/h
Spd
kts
Gust
kts
18/02:00pm 22.1 18.1 15.2 65 4.1 NNE 30 41 16 22 1013.1 1013.0 0.0
18/01:30pm 22.5 19.0 15.4 64 4.3 NNE 28 41 15 22 1013.6 1013.5 0.0
18/01:00pm 21.8 17.1 14.2 62 4.4 NNE 32 43 17 23 1014.0 1013.9 0.0
18/12:55pm 22.1 17.2 14.2 61 4.6 NNE 33 41 18 22 1014.1 1014.0 0.0
18/12:36pm 21.9 17.9 14.0 61 4.6 NNE 28 43 15 23 1014.3 1014.2 0.0
18/12:30pm 21.9 17.5 14.0 61 4.6 NNE 30 43 16 23 1014.3 1014.2 0.0
18/12:00pm 21.1 16.2 13.8 63 4.2 NNE 32 44 17 24 1014.9 1014.8 0.0
18/11:30am 21.3 16.6 14.2 64 4.1 NNE 32 41 17 22 1015.4 1015.3 0.0
18/11:00am 21.3 17.3 14.2 64 4.1 NNE 28 39 15 21 1015.9 1015.8 0.0
18/10:30am 20.0 16.2 13.5 66 3.7 NNE 26 37 14 20 1016.5 1016.4 0.0
18/10:00am 19.5 16.3 13.2 67 3.6 NNE 22 30 12 16 1017.0 1016.9 0.0
18/09:30am 18.6 15.4 13.2 71 3.1 NNE 22 28 12 15 1017.5 1017.4 0.0
18/09:00am 18.2 15.6 13.7 75 2.6 NNE 20 28 11 15 1018.1 1018.0 0.0
18/08:30am 17.0 14.0 12.1 73 2.7 NNE 19 28 10 15 1018.4 1018.3 0.0
18/08:00am 16.3 14.1 12.1 76 2.3 NNE 15 20 8 11 1018.4 1018.3 0.0
18/07:30am 15.3 14.0 12.6 84 1.5 NNE 11 15 6 8 1018.3 1018.2 0.0
18/07:00am 13.7 13.3 13.1 96 0.3 N 7 9 4 5 1018.1 1018.0 0.0
18/06:30am 12.1 11.5 11.6 97 0.3 NE 6 7 3 4 1017.9 1017.8 0.0
18/06:00am 11.4 10.4 10.9 97 0.3 ENE 7 9 4 5 1017.8 1017.7 0.0
18/05:30am 11.8 11.0 10.9 94 0.5 W 6 7 3 4 1017.7 1017.6 0.0
18/05:00am 12.5 12.9 11.4 93 0.6 CALM 0 0 0 0 1018.1 1018.0 0.0
18/04:30am 12.7 13.1 11.4 92 0.7 CALM 0 0 0 0 1018.1 1018.0 0.0
18/04:00am 13.2 13.6 11.3 88 1.0 CALM 0 0 0 0 1018.4 1018.3 0.0
18/03:30am 13.5 12.8 11.9 90 0.9 SW 7 9 4 5 1018.9 1018.8 0.0
18/03:00am 13.4 12.7 12.0 91 0.8 W 7 9 4 5 1019.2 1019.0 0.0
18/02:30am 14.1 13.2 12.5 90 0.9 W 9 11 5 6 1019.3 1019.1 0.0
18/02:00am 14.2 14.6 12.6 90 0.9 WNW 2 7 1 4 1019.6 1019.4 0.0
18/01:30am 14.2 13.6 12.2 88 1.1 NNW 7 9 4 5 1019.8 1019.6 0.0
18/01:00am 14.6 14.9 12.1 85 1.4 W 2 7 1 4 1020.3 1020.1 0.0
18/12:30am 14.7 14.1 11.8 83 1.6 NW 6 6 3 3 1020.8 1020.6 0.0
18/12:00am 15.6 15.3 11.4 76 2.3 SSE 4 7 2 4 1021.0 1020.8 0.0
 
Date/Time
EDT
Temp
°C
App
Temp
°C
Dew
Point
°C
Rel
Hum
%
Delta-T
°C
Wind Press
QNH
hPa
Press
MSL
hPa
Rain since
9am
mm
Dir  Spd
km/h
Gust
km/h
Spd
kts
Gust
kts
17/11:30pm 15.3 14.4 11.5 78 2.0 SW 7 9 4 5 1021.0 1020.8 0.0
17/11:00pm 15.4 14.5 10.8 74 2.4 WSW 6 7 3 4 1021.1 1020.9 0.0
17/10:30pm 15.6 14.7 10.6 72 2.7 S 6 11 3 6 1021.1 1020.9 0.0
17/10:00pm 15.7 14.5 10.2 70 2.9 SE 7 11 4 6 1021.2 1021.0 0.0
17/09:30pm 15.6 12.9 10.2 70 2.8 SE 15 19 8 10 1021.0 1020.8 0.0
17/09:00pm 15.7 12.9 10.0 69 3.0 SE 15 22 8 12 1020.8 1020.6 0.0
17/08:30pm 15.8 12.2 9.7 67 3.2 SE 19 24 10 13 1020.5 1020.3 0.0
17/08:00pm 15.8 12.3 10.1 69 3.0 SE 19 24 10 13 1020.2 1020.0 0.0
17/07:30pm 15.9 13.0 10.9 72 2.7 SE 17 22 9 12 1019.8 1019.6 0.0
17/07:00pm 16.0 12.3 10.1 68 3.1 SE 20 28 11 15 1019.2 1019.0 0.0
17/06:30pm 16.2 12.5 10.3 68 3.1 SE 20 26 11 14 1018.6 1018.5 0.0
17/06:00pm 16.3 12.9 10.4 68 3.1 SE 19 24 10 13 1018.5 1018.4 0.0
17/05:30pm 16.4 12.8 10.5 68 3.1 SE 20 26 11 14 1018.1 1018.0 0.0
17/05:00pm 16.5 11.6 10.1 66 3.4 SE 26 32 14 17 1017.7 1017.6 0.0
17/04:30pm 16.8 12.3 10.2 65 3.5 SE 24 37 13 20 1017.3 1017.2 0.0
17/04:00pm 17.1 12.4 10.5 65 3.5 SE 26 33 14 18 1017.0 1016.9 0.0
17/03:30pm 17.4 12.1 9.8 61 4.0 SE 28 37 15 20 1016.6 1016.5 0.0
17/03:00pm 17.8 13.0 10.2 61 4.0 SE 26 37 14 20 1016.6 1016.5 0.0
17/02:30pm 17.5 12.5 10.9 65 3.6 SE 28 39 15 21 1017.1 1017.0 0.0
17/02:00pm 18.4 13.1 11.2 63 3.9 SE 30 37 16 20 1017.1 1017.0 0.0
17/01:30pm 17.7 12.3 11.0 65 3.6 SE 30 37 16 20 1017.1 1017.0 0.0
17/01:00pm 18.5 13.5 12.3 67 3.4 SE 30 39 16 21 1017.0 1016.9 0.0
17/12:30pm 18.6 13.8 12.8 69 3.3 SE 30 39 16 21 1017.1 1017.0 0.0
17/12:00pm 17.2 13.6 12.9 76 2.4 SSE 24 35 13 19 1017.3 1017.2 0.0
17/11:30am 17.6 13.6 13.1 75 2.5 SE 26 33 14 18 1017.3 1017.2 0.0
17/11:00am 18.2 14.6 13.1 72 2.9 SE 24 32 13 17 1017.2 1017.1 0.0
17/10:30am 17.3 13.0 13.2 77 2.3 SSE 28 35 15 19 1017.3 1017.2 0.0
17/10:00am 17.6 14.6 14.7 83 1.7 SSE 24 30 13 16 1017.3 1017.2 0.0
17/09:30am 16.4 14.3 14.6 89 1.0 SSE 19 28 10 15 1017.1 1017.0 0.0
17/09:00am 15.8 14.1 14.7 93 0.6 SSE 17 24 9 13 1017.1 1017.0 2.6
17/08:30am 16.9 16.8 13.8 82 1.8 S 7 11 4 6 1016.9 1016.8 1.4
17/08:00am 17.3 16.2 14.2 82 1.8 E 13 20 7 11 1016.2 1016.1 1.4
17/07:30am 16.1 15.5 14.6 91 0.9 SE 11 15 6 8 1016.0 1015.9 1.4
17/07:00am 15.4 15.2 14.6 95 0.5 SE 9 11 5 6 1015.9 1015.8 1.4
17/06:30am 15.2 14.2 14.7 97 0.3 SSE 13 17 7 9 1016.1 1016.0 1.4
17/06:00am 15.1 14.1 14.5 96 0.3 SE 13 17 7 9 1015.7 1015.6 1.2
17/05:30am 14.8 13.8 14.5 98 0.2 SSE 13 15 7 8 1015.5 1015.4 1.2
17/05:22am 14.7 14.0 14.4 98 0.2 SSE 11 13 6 7 1015.4 1015.3 1.2
17/05:00am 14.6 15.6 14.3 98 0.2 NNW 2 7 1 4 1015.5 1015.4 1.2
17/04:35am 14.6 14.3 14.3 98 0.2 W 9 11 5 6 1015.8 1015.7 1.0
17/04:30am 14.6 14.6 14.3 98 0.2 SW 7 11 4 6 1015.8 1015.7 1.0
17/04:00am 14.9 14.7 14.6 98 0.2 SSE 9 11 5 6 1015.8 1015.7 0.6
17/03:30am 15.0 14.8 14.7 98 0.2 S 9 11 5 6 1016.3 1016.2 0.6
17/03:00am 15.0 16.1 14.5 97 0.3 ESE 2 9 1 5 1016.4 1016.3 0.6
17/02:30am 14.9 15.9 14.4 97 0.3 SE 2 6 1 3 1016.4 1016.3 0.6
17/02:00am 15.1 16.6 14.6 97 0.3 CALM 0 6 0 3 1016.5 1016.4 0.6
17/01:30am 15.3 15.3 14.3 94 0.6 SSE 7 9 4 5 1016.9 1016.8 0.2
17/01:14am 15.4 16.2 13.8 90 0.9 ENE 2 6 1 3 1016.9 1016.8 0.2
17/01:00am 15.6 15.5 13.8 89 1.0 ENE 7 13 4 7 1016.6 1016.5 0.0
17/12:30am 15.6 14.6 13.3 86 1.3 NE 11 15 6 8 1016.7 1016.6 0.0
17/12:00am 15.9 14.7 12.8 82 1.7 ENE 11 19 6 10 1016.9 1016.8 0.0
 
Date/Time
EDT
Temp
°C
App
Temp
°C
Dew
Point
°C
Rel
Hum
%
Delta-T
°C
Wind Press
QNH
hPa
Press
MSL
hPa
Rain since
9am
mm
Dir  Spd
km/h
Gust
km/h
Spd
kts
Gust
kts
16/11:30pm 15.8 14.8 12.4 80 1.9 E 9 13 5 7 1016.8 1016.7 0.0
16/11:00pm 15.7 14.4 12.6 82 1.7 ESE 11 15 6 8 1017.2 1017.1 0.0
16/10:30pm 15.9 15.0 12.6 81 1.8 ESE 9 11 5 6 1017.2 1017.1 0.0
16/10:00pm 15.5 13.9 12.8 84 1.5 E 13 19 7 10 1017.2 1017.1 0.0
16/09:30pm 15.9 13.9 12.6 81 1.8 ESE 15 19 8 10 1017.2 1017.1 0.0
16/09:00pm 16.0 13.6 12.7 81 1.8 E 17 20 9 11 1016.8 1016.7 0.0
16/08:30pm 16.2 13.4 12.6 79 2.0 E 19 24 10 13 1016.3 1016.2 0.0
16/08:00pm 16.4 14.4 12.6 78 2.1 E 15 22 8 12 1016.1 1016.0 0.0
16/07:30pm 16.4 13.9 12.4 77 2.2 E 17 20 9 11 1015.9 1015.8 0.0
16/07:00pm 16.5 14.8 12.5 77 2.2 E 13 19 7 10 1015.6 1015.5 0.0
16/06:30pm 16.6 13.7 12.2 75 2.4 E 19 24 10 13 1015.2 1015.1 0.0
16/06:00pm 16.8 14.7 12.3 75 2.5 ENE 15 19 8 10 1015.0 1014.9 0.0
16/05:30pm 16.9 14.7 12.2 74 2.6 ENE 15 20 8 11 1014.7 1014.6 0.0
16/05:00pm 16.9 13.9 12.0 73 2.7 ENE 19 26 10 14 1014.7 1014.6 0.0
16/04:30pm 17.0 13.8 11.9 72 2.8 ENE 20 28 11 15 1014.7 1014.6 0.0
16/04:00pm 17.2 13.9 11.5 69 3.1 ENE 20 28 11 15 1014.7 1014.6 0.0
16/03:30pm 17.5 13.7 11.1 66 3.5 ENE 22 32 12 17 1014.6 1014.5 0.0
16/03:00pm 18.6 14.4 11.2 62 4.0 NE 24 33 13 18 1014.8 1014.7 0.0
16/02:30pm 19.4 15.4 11.7 61 4.3 ENE 24 35 13 19 1015.0 1014.9 0.0
16/02:00pm 17.8 14.2 10.7 63 3.8 E 20 30 11 16 1015.5 1015.4 0.0
16/01:30pm 17.8 14.4 11.4 66 3.5 E 20 32 11 17 1015.7 1015.6 0.0
16/01:00pm 18.0 14.6 11.1 64 3.7 E 20 28 11 15 1016.0 1015.9 0.0
16/12:30pm 18.0 14.4 10.4 61 4.1 E 20 37 11 20 1015.9 1015.8 0.0
16/12:00pm 17.3 14.3 10.7 65 3.5 E 17 26 9 14 1016.5 1016.4 0.0
16/11:30am 17.0 13.9 10.4 65 3.5 E 17 26 9 14 1016.8 1016.7 0.0
16/11:00am 16.9 13.4 10.3 65 3.5 SE 19 26 10 14 1017.1 1017.0 0.0
16/10:30am 16.9 14.0 11.0 68 3.2 SE 17 26 9 14 1017.1 1017.0 0.0
16/10:00am 16.0 13.0 10.7 71 2.8 SE 17 22 9 12 1016.9 1016.8 0.0
16/09:30am 15.8 13.3 11.2 74 2.5 SSE 15 22 8 12 1016.7 1016.6 0.0
16/09:00am 16.2 13.5 11.6 74 2.5 E 17 24 9 13 1016.4 1016.3 0.0
16/08:30am 16.0 13.6 11.4 74 2.5 SE 15 26 8 14 1016.3 1016.2 0.0
16/08:00am 15.9 12.7 11.3 74 2.5 SE 19 26 10 14 1016.0 1015.9 0.0
16/07:30am 15.6 12.7 12.2 80 1.9 SE 19 26 10 14 1015.8 1015.7 0.0
16/07:00am 15.1 12.0 12.1 82 1.6 SE 20 24 11 13 1015.3 1015.2 0.0
16/06:30am 15.3 12.2 12.1 81 1.7 SE 20 28 11 15 1015.0 1014.9 0.0
16/06:00am 15.0 11.9 12.1 83 1.6 SE 20 28 11 15 1014.5 1014.4 0.0
16/05:30am 15.0 12.0 12.1 83 1.6 SE 19 24 10 13 1013.8 1013.7 0.0
16/05:00am 15.0 11.6 12.5 85 1.4 ESE 22 28 12 15 1013.5 1013.4 0.0
16/04:30am 15.9 12.0 12.1 78 2.1 SE 24 33 13 18 1013.3 1013.2 0.0
16/04:00am 16.0 12.7 12.7 81 1.8 SE 22 32 12 17 1013.0 1012.9 0.0
16/03:30am 16.0 13.2 13.3 84 1.5 SE 20 28 11 15 1013.0 1012.9 0.0
16/03:00am 16.5 13.9 13.2 81 1.8 SE 19 24 10 13 1013.0 1012.9 0.0
16/02:30am 16.3 14.0 13.0 81 1.8 SE 17 24 9 13 1013.0 1012.9 0.0
16/02:00am 16.2 14.3 12.9 81 1.8 SE 15 20 8 11 1013.1 1013.0 0.0
16/01:30am 16.1 14.5 12.8 81 1.8 SSE 13 19 7 10 1013.2 1013.1 0.0
16/01:00am 16.2 14.7 13.1 82 1.7 SSE 13 17 7 9 1013.1 1013.0 0.0
16/12:30am 15.9 15.1 13.0 83 1.6 SSW 9 13 5 7 1013.3 1013.2 0.0
16/12:00am 16.1 14.5 12.8 81 1.8 S 13 19 7 10 1013.1 1013.0 0.0
 
Date/Time
EDT
Temp
°C
App
Temp
°C
Dew
Point
°C
Rel
Hum
%
Delta-T
°C
Wind Press
QNH
hPa
Press
MSL
hPa
Rain since
9am
mm
Dir  Spd
km/h
Gust
km/h
Spd
kts
Gust
kts
15/11:30pm 16.6 14.0 13.1 80 2.0 SSE 19 24 10 13 1012.8 1012.7 0.0
15/11:00pm 16.5 15.0 13.2 81 1.8 S 13 22 7 12 1012.6 1012.5 0.0
15/10:30pm 16.7 14.0 13.4 81 1.9 S 20 28 11 15 1012.4 1012.3 0.0
15/10:00pm 16.9 13.1 13.6 81 1.9 S 26 32 14 17 1011.9 1011.8 0.0
15/09:30pm 17.0 13.0 14.1 83 1.7 S 28 37 15 20 1011.5 1011.4 0.0
15/09:00pm 17.0 12.3 14.3 84 1.5 S 32 43 17 23 1010.7 1010.6 0.0
15/08:38pm 17.1 12.3 14.7 86 1.4 SSW 33 46 18 25 1010.2 1010.0 0.0
15/08:30pm 17.1 12.0 14.7 86 1.4 SSW 35 46 19 25 1010.1 1009.9 0.0
15/08:18pm 17.2 12.6 15.0 87 1.3 SSW 33 52 18 28 1009.9 1009.7 0.0
15/08:00pm 17.5 13.0 15.5 88 1.2 SSW 33 50 18 27 1009.6 1009.4 0.0
15/07:30pm 17.8 12.9 16.3 91 0.9 SSW 37 57 20 31 1008.5 1008.3 0.0
15/07:17pm 17.9 13.5 16.6 92 0.8 SSW 35 56 19 30 1008.0 1007.8 0.0
15/07:14pm 17.9 13.5 16.6 92 0.8 SSW 35 56 19 30 1007.9 1007.7 0.0
15/07:00pm 18.2 13.1 16.9 92 0.8 SSW 39 52 21 28 1007.5 1007.3 0.0
15/06:30pm 20.9 15.7 13.4 62 4.3 SW 33 61 18 33 1005.9 1005.7 0.0
15/06:28pm 23.3 17.7 11.4 47 6.7 WSW 32 46 17 25 1005.8 1005.6 0.0
15/06:00pm 28.5 21.5 -0.6 15 13.7 WNW 26 39 14 21 1004.8 1004.6 0.0
15/05:30pm 30.0 22.1 -1.4 13 14.7 W 30 50 16 27 1004.3 1004.1 0.0
15/05:08pm 29.6 21.5 -2.8 12 14.7 WNW 30 63 16 34 1004.1 1003.9 0.0
15/05:00pm 28.8 21.3 1.3 17 13.4 WNW 30 41 16 22 1004.2 1004.0 0.0
15/04:44pm 28.8 20.8 0.5 16 13.5 WNW 32 50 17 27 1004.2 1004.0 0.0
15/04:30pm 28.9 21.8 1.4 17 13.4 WNW 28 41 15 22 1004.2 1004.0 0.0
15/04:19pm 28.8 21.4 -0.4 15 13.8 W 28 46 15 25 1004.2 1004.0 0.0
15/04:00pm 28.4 22.4 1.0 17 13.2 WNW 22 35 12 19 1004.2 1004.0 0.0
15/03:34pm 28.0 23.1 2.2 19 12.7 NW 17 41 9 22 1004.4 1004.2 0.0
15/03:30pm 25.6 23.2 8.6 34 9.2 NNW 11 22 6 12 1004.5 1004.3 0.0
15/03:00pm 24.4 20.2 7.5 34 8.9 ENE 19 26 10 14 1004.8 1004.6 0.0
15/02:30pm 25.3 22.0 7.9 33 9.3 ENE 15 20 8 11 1005.1 1004.9 0.0

Other formats

Comma delimited format used in spreadsheet applications
http://www.bom.gov.au/fwo/IDN60801/IDN60801.94751.axf

JavaScript Object Notation format (JSON) in row-major order
http://www.bom.gov.au/fwo/IDN60801/IDN60801.94751.json

Data quality

Most of these data are generated automatically and are frequently updated. Quality checks on data are not normally performed. It is possible for incorrect values to appear. Refer to information at About Latest Weather Observations and please check the disclaimer before using these data.